createdAt,value
2022-08-24T00:00:25.985Z,3.90
2022-08-24T00:02:52.762Z,2.97
2022-08-24T00:05:21.356Z,3.07
2022-08-24T00:07:49.203Z,2.80
2022-08-24T00:10:16.268Z,2.43
2022-08-24T00:12:43.673Z,3.10
2022-08-24T00:15:11.609Z,3.13
2022-08-24T00:17:38.308Z,2.80
2022-08-24T00:20:05.780Z,3.40
2022-08-24T00:22:32.375Z,3.27
2022-08-24T00:24:59.662Z,3.30
2022-08-24T00:27:27.055Z,4.20
2022-08-24T00:29:53.946Z,3.60
2022-08-24T00:32:20.758Z,3.50
2022-08-24T00:34:58.549Z,3.70
2022-08-24T00:37:27.389Z,3.90
2022-08-24T00:39:54.518Z,3.63
2022-08-24T00:42:21.402Z,2.97
2022-08-24T00:44:48.239Z,4.43
2022-08-24T00:47:21.167Z,3.80
2022-08-24T00:49:59.510Z,3.67
2022-08-24T00:52:33.383Z,3.33
2022-08-24T00:55:21.056Z,3.40
2022-08-24T00:57:49.273Z,4.13
2022-08-24T01:00:19.193Z,3.70
2022-08-24T01:02:48.911Z,3.13
2022-08-24T01:05:16.405Z,4.53
2022-08-24T01:07:43.096Z,3.87
2022-08-24T01:10:14.972Z,4.50
2022-08-24T01:12:48.177Z,4.80
2022-08-24T01:15:27.435Z,4.67
2022-08-24T01:18:12.980Z,4.67
2022-08-24T01:20:39.727Z,4.63
2022-08-24T01:23:25.437Z,4.00
2022-08-24T01:26:02.946Z,5.27
2022-08-24T01:28:30.189Z,4.87
2022-08-24T01:30:58.683Z,3.87
2022-08-24T01:33:27.330Z,3.87
2022-08-24T01:35:57.977Z,4.70
2022-08-24T01:38:24.836Z,4.17
2022-08-24T01:40:53.450Z,3.93
2022-08-24T01:43:22.509Z,4.50
2022-08-24T01:45:49.463Z,4.27
2022-08-24T01:48:19.952Z,4.70
2022-08-24T01:50:50.886Z,4.50
2022-08-24T01:53:17.699Z,4.73
2022-08-24T01:55:44.890Z,3.90
2022-08-24T01:58:11.754Z,5.00
2022-08-24T02:00:40.399Z,5.03
2022-08-24T02:03:07.505Z,4.30
2022-08-24T02:05:35.113Z,4.67
2022-08-24T02:08:01.863Z,4.23
2022-08-24T02:10:29.575Z,5.17
2022-08-24T02:13:00.495Z,5.27
2022-08-24T02:15:31.922Z,4.30
2022-08-24T02:17:59.381Z,5.10
2022-08-24T02:20:26.898Z,4.67
2022-08-24T02:22:54.167Z,4.80
2022-08-24T02:25:21.701Z,4.50
2022-08-24T02:27:48.360Z,5.70
2022-08-24T02:30:15.858Z,5.17
2022-08-24T02:32:42.652Z,5.37
2022-08-24T02:35:10.116Z,5.13
2022-08-24T02:37:43.222Z,4.73
2022-08-24T02:40:12.945Z,5.07
2022-08-24T02:42:39.757Z,5.20
2022-08-24T02:45:07.964Z,6.27
2022-08-24T02:47:39.137Z,4.50
2022-08-24T02:50:09.060Z,5.13
2022-08-24T02:52:36.880Z,5.27
2022-08-24T02:55:04.013Z,4.40
2022-08-24T02:57:30.826Z,5.40
2022-08-24T02:59:57.535Z,5.33
2022-08-24T03:02:25.061Z,6.00
2022-08-24T03:04:52.287Z,4.40
2022-08-24T03:07:19.778Z,5.50
2022-08-24T03:09:46.496Z,5.60
2022-08-24T03:12:13.262Z,6.10
2022-08-24T03:14:41.033Z,5.50
2022-08-24T03:17:07.713Z,5.87
2022-08-24T03:19:34.542Z,4.83
2022-08-24T03:22:01.377Z,5.17
2022-08-24T03:24:28.213Z,5.43
2022-08-24T03:26:55.234Z,5.97
2022-08-24T03:29:21.882Z,6.60
2022-08-24T03:31:50.757Z,5.53
2022-08-24T03:34:18.625Z,5.90
2022-08-24T03:36:48.189Z,5.83
2022-08-24T03:39:16.310Z,5.50
2022-08-24T03:41:43.225Z,5.37
2022-08-24T03:44:09.824Z,7.43
2022-08-24T03:46:37.706Z,6.00
2022-08-24T03:49:05.613Z,5.63
2022-08-24T03:51:32.458Z,5.23
2022-08-24T03:53:59.666Z,5.87
2022-08-24T03:56:28.215Z,7.00
2022-08-24T03:58:55.529Z,6.10
2022-08-24T04:01:23.402Z,5.60
2022-08-24T04:03:50.287Z,7.07
2022-08-24T04:06:18.405Z,6.00
2022-08-24T04:08:45.399Z,7.10
2022-08-24T04:11:23.260Z,5.93
2022-08-24T04:13:52.114Z,6.47
2022-08-24T04:16:20.278Z,7.00
2022-08-24T04:18:52.719Z,8.10
2022-08-24T04:21:21.117Z,7.30
2022-08-24T04:23:48.167Z,7.67
2022-08-24T04:26:32.369Z,7.70
2022-08-24T04:29:08.135Z,6.33
2022-08-24T04:31:39.349Z,6.10
2022-08-24T04:34:06.618Z,7.80
2022-08-24T04:36:33.935Z,7.40
2022-08-24T04:39:01.380Z,6.53
2022-08-24T04:41:51.251Z,6.20
2022-08-24T04:44:20.133Z,6.87
2022-08-24T04:46:47.034Z,7.03
2022-08-24T04:49:14.045Z,6.30
2022-08-24T04:51:40.681Z,6.77
2022-08-24T04:54:08.581Z,6.97
2022-08-24T04:56:36.181Z,5.63
2022-08-24T04:59:05.576Z,4.80
2022-08-24T05:01:35.120Z,5.67
2022-08-24T05:04:05.255Z,6.20
2022-08-24T05:06:32.700Z,5.90
2022-08-24T05:09:00.450Z,5.90
2022-08-24T05:11:28.492Z,6.17
2022-08-24T05:13:55.470Z,6.17
2022-08-24T05:16:23.259Z,6.40
2022-08-24T05:18:50.413Z,6.23
2022-08-24T05:21:18.990Z,5.63
2022-08-24T05:23:46.431Z,5.77
2022-08-24T05:26:25.908Z,5.87
2022-08-24T05:28:54.644Z,6.10
2022-08-24T05:31:23.060Z,6.37
2022-08-24T05:33:50.489Z,6.50
2022-08-24T05:36:27.357Z,6.83
2022-08-24T05:38:55.433Z,5.07
2022-08-24T05:41:22.497Z,6.40
2022-08-24T05:43:56.094Z,7.00
2022-08-24T05:46:22.917Z,7.87
2022-08-24T05:48:52.607Z,8.40
2022-08-24T05:51:34.928Z,7.70
2022-08-24T05:54:07.722Z,7.17
2022-08-24T05:56:55.028Z,6.40
2022-08-24T05:59:22.675Z,5.77
2022-08-24T06:01:49.763Z,5.50
2022-08-24T06:04:17.674Z,5.60
2022-08-24T06:06:44.309Z,6.27
2022-08-24T06:09:16.046Z,5.00
2022-08-24T06:11:43.054Z,6.53
2022-08-24T06:14:15.086Z,4.83
2022-08-24T06:17:00.159Z,4.50
2022-08-24T06:19:27.349Z,4.30
2022-08-24T06:21:55.357Z,4.60
2022-08-24T06:24:58.537Z,4.30
2022-08-24T06:27:26.384Z,5.60
2022-08-24T06:30:05.165Z,6.07
2022-08-24T06:32:52.013Z,7.37
2022-08-24T06:35:47.767Z,7.70
2022-08-24T06:38:14.891Z,10.10
2022-08-24T06:40:43.326Z,11.33
2022-08-24T06:43:11.081Z,10.47
2022-08-24T06:45:45.259Z,11.17
2022-08-24T06:48:14.035Z,9.80
2022-08-24T06:50:42.694Z,10.70
2022-08-24T06:53:09.465Z,9.80
2022-08-24T06:55:36.490Z,9.00
2022-08-24T06:58:03.672Z,9.30
2022-08-24T07:00:31.076Z,9.37
2022-08-24T07:02:58.023Z,10.43
2022-08-24T07:05:24.791Z,10.20
2022-08-24T07:08:11.333Z,9.67
2022-08-24T07:10:38.040Z,10.90
2022-08-24T07:13:04.845Z,8.60
2022-08-24T07:15:31.911Z,8.90
2022-08-24T07:18:11.518Z,8.33
2022-08-24T07:20:42.699Z,9.97
2022-08-24T07:23:21.681Z,9.20
2022-08-24T07:25:52.129Z,10.67
2022-08-24T07:28:27.754Z,8.47
2022-08-24T07:30:58.834Z,10.37
2022-08-24T07:33:26.836Z,10.10
2022-08-24T07:35:56.291Z,10.70
2022-08-24T07:38:23.529Z,10.10
2022-08-24T07:41:14.276Z,10.00
2022-08-24T07:43:36.883Z,10.63
2022-08-24T07:46:08.651Z,11.20
2022-08-24T07:48:36.399Z,12.17
2022-08-24T07:51:07.427Z,11.17
2022-08-24T07:53:52.545Z,9.90
2022-08-24T07:56:21.669Z,9.17
2022-08-24T07:58:49.329Z,9.33
2022-08-24T08:01:22.398Z,8.90
2022-08-24T08:03:50.424Z,9.07
2022-08-24T08:06:19.097Z,9.90
2022-08-24T08:08:47.927Z,7.63
2022-08-24T08:11:14.662Z,8.10
2022-08-24T08:16:09.732Z,6.17
2022-08-24T08:18:36.475Z,7.80
2022-08-24T08:21:28.318Z,7.60
2022-08-24T08:24:14.767Z,5.87
2022-08-24T08:26:43.013Z,6.63
2022-08-24T08:29:19.918Z,6.77
2022-08-24T08:31:47.426Z,6.50
2022-08-24T08:34:14.120Z,5.80
2022-08-24T08:36:42.222Z,5.93
2022-08-24T08:39:11.011Z,6.13
2022-08-24T08:41:50.311Z,5.77
2022-08-24T08:44:34.765Z,5.43
2022-08-24T08:47:08.107Z,6.00
2022-08-24T08:49:48.864Z,5.60
2022-08-24T08:52:34.378Z,5.30
2022-08-24T08:55:06.108Z,4.97
2022-08-24T08:57:46.448Z,4.10
2022-08-24T09:00:25.094Z,4.77
2022-08-24T09:03:03.598Z,4.37
2022-08-24T09:05:50.722Z,4.50
2022-08-24T09:08:34.139Z,3.67
2022-08-24T09:11:10.846Z,4.07
2022-08-24T09:13:42.653Z,4.43
2022-08-24T09:16:40.678Z,2.63
2022-08-24T09:19:11.976Z,3.67
2022-08-24T09:21:49.366Z,3.50
2022-08-24T09:24:20.336Z,4.27
2022-08-24T09:26:58.038Z,4.90
2022-08-24T09:29:38.425Z,3.97
2022-08-24T09:32:18.051Z,3.60
2022-08-24T09:34:51.396Z,3.60
2022-08-24T09:37:32.716Z,3.30
2022-08-24T09:40:01.248Z,3.90
2022-08-24T09:42:35.213Z,4.67
2022-08-24T09:45:20.701Z,4.20
2022-08-24T09:48:06.203Z,3.53
2022-08-24T09:50:51.711Z,3.00
2022-08-24T09:53:37.469Z,3.80
2022-08-24T09:56:19.514Z,3.37
2022-08-24T09:59:05.107Z,3.10
2022-08-24T10:01:50.898Z,2.97
2022-08-24T10:04:26.807Z,2.97
2022-08-24T10:07:12.369Z,2.40
2022-08-24T10:09:48.338Z,3.30
2022-08-24T10:12:35.313Z,2.53
2022-08-24T10:15:09.964Z,3.50
2022-08-24T10:17:39.594Z,1.87
2022-08-24T10:20:23.943Z,2.10
2022-08-24T10:23:18.476Z,2.83
2022-08-24T10:25:48.484Z,2.83
2022-08-24T10:28:47.751Z,3.07
2022-08-24T10:31:18.560Z,3.10
2022-08-24T10:33:45.167Z,2.57
2022-08-24T10:36:11.787Z,3.00
2022-08-24T10:39:14.758Z,2.70
2022-08-24T10:42:05.429Z,2.30
2022-08-24T10:44:47.938Z,2.20
2022-08-24T10:47:22.486Z,2.30
2022-08-24T10:50:07.934Z,2.30
2022-08-24T10:52:38.144Z,1.57
2022-08-24T10:55:23.269Z,3.10
2022-08-24T10:57:57.883Z,2.10
2022-08-24T11:00:27.372Z,1.97
2022-08-24T11:03:14.053Z,2.23
2022-08-24T11:06:00.904Z,1.97
2022-08-24T11:08:29.170Z,1.33
2022-08-24T11:11:22.712Z,1.77
2022-08-24T11:13:50.939Z,1.77
2022-08-24T11:16:26.119Z,2.30
2022-08-24T11:18:54.372Z,1.83
2022-08-24T11:21:36.211Z,1.97
2022-08-24T11:24:04.704Z,2.10
2022-08-24T11:26:31.919Z,1.60
2022-08-24T11:29:00.807Z,1.63
2022-08-24T11:31:27.544Z,1.20
2022-08-24T11:34:00.439Z,1.57
2022-08-24T11:36:28.634Z,1.50
2022-08-24T11:39:12.965Z,1.20
2022-08-24T11:42:05.928Z,1.40
2022-08-24T11:44:38.354Z,1.40
2022-08-24T11:47:11.180Z,1.40
2022-08-24T11:49:50.088Z,1.43
2022-08-24T11:52:20.045Z,1.23
2022-08-24T11:54:58.078Z,1.77
2022-08-24T11:57:35.304Z,1.20
2022-08-24T12:00:07.307Z,1.83
2022-08-24T12:02:49.069Z,1.70
2022-08-24T12:05:39.131Z,1.57
2022-08-24T12:08:10.355Z,1.40
2022-08-24T12:10:57.269Z,2.30
2022-08-24T12:13:29.555Z,2.00
2022-08-24T12:16:03.639Z,1.47
2022-08-24T12:18:37.701Z,1.63
2022-08-24T12:21:04.645Z,1.67
2022-08-24T12:23:35.661Z,2.10
2022-08-24T12:26:05.075Z,1.47
2022-08-24T12:28:44.112Z,1.60
2022-08-24T12:31:12.936Z,1.80
2022-08-24T12:33:44.404Z,1.70
2022-08-24T12:36:16.949Z,2.07
2022-08-24T12:38:50.298Z,1.50
2022-08-24T12:41:29.822Z,1.83
2022-08-24T12:44:11.890Z,1.40
2022-08-24T12:46:39.240Z,1.53
2022-08-24T12:49:19.795Z,1.77
2022-08-24T12:52:22.005Z,1.60
2022-08-24T12:54:51.515Z,1.40
2022-08-24T12:57:25.362Z,1.87
2022-08-24T12:59:56.956Z,1.73
2022-08-24T13:02:23.909Z,1.43
2022-08-24T13:04:51.041Z,1.73
2022-08-24T13:07:23.961Z,1.63
2022-08-24T13:09:53.801Z,1.63
2022-08-24T13:12:39.009Z,1.80
2022-08-24T13:15:20.920Z,1.67
2022-08-24T13:17:54.015Z,2.40
2022-08-24T13:20:30.037Z,2.17
2022-08-24T13:23:30.418Z,1.70
2022-08-24T13:26:17.295Z,1.73
2022-08-24T13:28:45.863Z,1.70
2022-08-24T13:31:20.681Z,1.33
2022-08-24T13:33:47.476Z,1.70
2022-08-24T13:36:29.515Z,1.70
2022-08-24T13:39:22.407Z,1.73
2022-08-24T13:42:27.760Z,1.53
2022-08-24T13:45:00.223Z,1.70
2022-08-24T13:47:45.873Z,2.40
2022-08-24T13:50:34.301Z,2.13
2022-08-24T13:53:03.923Z,2.27
2022-08-24T13:55:34.492Z,1.53
2022-08-24T13:58:11.470Z,2.10
2022-08-24T14:00:50.916Z,1.93
2022-08-24T14:03:23.795Z,1.70
2022-08-24T14:05:57.518Z,1.50
2022-08-24T14:08:24.772Z,1.83
2022-08-24T14:11:12.184Z,1.70
2022-08-24T14:13:51.340Z,1.63
2022-08-24T14:16:47.201Z,1.80
2022-08-24T14:19:25.253Z,1.57
2022-08-24T14:21:59.452Z,1.60
2022-08-24T14:24:31.110Z,1.90
2022-08-24T14:27:02.151Z,1.77
2022-08-24T14:29:30.648Z,1.67
2022-08-24T14:32:08.543Z,1.60
2022-08-24T14:34:49.824Z,1.43
2022-08-24T14:37:21.058Z,2.50
2022-08-24T14:39:59.982Z,2.87
2022-08-24T14:42:54.097Z,2.13
2022-08-24T14:45:26.583Z,1.77
2022-08-24T14:48:05.701Z,1.93
2022-08-24T14:50:35.399Z,1.93
2022-08-24T14:53:14.472Z,2.07
2022-08-24T14:56:01.193Z,1.73
2022-08-24T14:58:47.441Z,1.87
2022-08-24T15:01:14.602Z,1.80
2022-08-24T15:04:01.746Z,1.63
2022-08-24T15:06:48.463Z,1.93
2022-08-24T15:09:23.378Z,1.77
2022-08-24T15:11:52.469Z,1.80
2022-08-24T15:14:38.539Z,2.00
2022-08-24T15:17:10.616Z,1.67
2022-08-24T15:19:47.105Z,2.23
2022-08-24T15:22:21.720Z,2.20
2022-08-24T15:24:55.079Z,1.60
2022-08-24T15:27:41.128Z,2.30
2022-08-24T15:30:17.391Z,2.40
2022-08-24T15:32:48.936Z,2.10
2022-08-24T15:35:24.723Z,3.37
2022-08-24T15:37:51.695Z,1.57
2022-08-24T15:40:23.930Z,1.87
2022-08-24T15:42:51.276Z,2.27
2022-08-24T15:45:18.349Z,2.00
2022-08-24T15:47:49.807Z,2.00
2022-08-24T15:50:27.394Z,2.00
2022-08-24T15:53:00.267Z,2.60
2022-08-24T15:55:39.317Z,1.90
2022-08-24T15:58:12.980Z,2.23
2022-08-24T16:00:58.620Z,1.63
2022-08-24T16:03:45.067Z,1.80
2022-08-24T16:06:30.969Z,1.60
2022-08-24T16:08:58.142Z,2.07
2022-08-24T16:11:30.095Z,3.00
2022-08-24T16:13:57.057Z,1.80
2022-08-24T16:16:35.300Z,2.23
2022-08-24T16:19:08.542Z,1.50
2022-08-24T16:21:41.939Z,1.77
2022-08-24T16:24:11.026Z,1.70
2022-08-24T16:26:47.212Z,1.60
2022-08-24T16:29:32.798Z,2.60
2022-08-24T16:32:08.607Z,2.53
2022-08-24T16:34:37.838Z,2.10
2022-08-24T16:37:05.024Z,1.73
2022-08-24T16:39:32.380Z,2.70
2022-08-24T16:42:03.595Z,2.30
2022-08-24T16:44:41.636Z,2.60
2022-08-24T16:47:09.223Z,1.97
2022-08-24T16:49:36.741Z,2.13
2022-08-24T16:52:03.987Z,1.53
2022-08-24T16:54:31.059Z,1.90
2022-08-24T16:57:05.139Z,2.03
2022-08-24T16:59:33.017Z,2.87
2022-08-24T17:02:00.711Z,2.40
2022-08-24T17:04:27.744Z,2.03
2022-08-24T17:06:56.411Z,1.90
2022-08-24T17:09:23.279Z,2.80
2022-08-24T17:11:50.005Z,1.93
2022-08-24T17:14:17.355Z,2.10
2022-08-24T17:16:44.200Z,3.10
2022-08-24T17:19:17.033Z,2.43
2022-08-24T17:21:43.965Z,2.40
2022-08-24T17:24:11.651Z,2.27
2022-08-24T17:26:45.707Z,2.23
2022-08-24T17:29:18.624Z,2.20
2022-08-24T17:31:47.219Z,2.27
2022-08-24T17:34:14.070Z,2.60
2022-08-24T17:36:42.625Z,2.97
2022-08-24T17:39:11.265Z,2.90
2022-08-24T17:41:38.271Z,2.17
2022-08-24T17:44:06.567Z,2.37
2022-08-24T17:46:33.392Z,3.30
2022-08-24T17:49:00.578Z,2.60
2022-08-24T17:51:27.290Z,2.20
2022-08-24T17:53:54.304Z,2.97
2022-08-24T17:56:21.699Z,2.80
2022-08-24T17:59:07.004Z,2.60
2022-08-24T18:01:33.933Z,2.57
2022-08-24T18:04:00.551Z,2.67
2022-08-24T18:06:28.894Z,2.57
2022-08-24T18:09:00.821Z,2.93
2022-08-24T18:11:27.540Z,2.40
2022-08-24T18:13:54.696Z,2.63
2022-08-24T18:16:22.985Z,2.87
2022-08-24T18:18:51.069Z,3.07
2022-08-24T18:21:20.197Z,3.93
2022-08-24T18:23:48.444Z,4.07
2022-08-24T18:26:17.084Z,3.47
2022-08-24T18:28:44.205Z,4.27
2022-08-24T18:31:11.767Z,3.23
2022-08-24T18:33:42.061Z,3.20
2022-08-24T18:36:09.039Z,3.07
2022-08-24T18:38:36.256Z,2.60
2022-08-24T18:41:03.014Z,2.93
2022-08-24T18:43:30.240Z,3.00
2022-08-24T18:45:57.329Z,3.33
2022-08-24T18:48:24.174Z,3.20
2022-08-24T18:50:51.642Z,2.77
2022-08-24T18:53:19.474Z,3.37
2022-08-24T18:55:47.321Z,3.97
2022-08-24T18:58:14.057Z,3.20
2022-08-24T19:00:41.634Z,4.00
2022-08-24T19:03:09.575Z,3.30
2022-08-24T19:05:36.755Z,3.10
2022-08-24T19:08:04.224Z,2.83
2022-08-24T19:10:35.974Z,3.47
2022-08-24T19:13:06.612Z,3.23
2022-08-24T19:15:40.287Z,3.47
2022-08-24T19:18:11.475Z,2.70
2022-08-24T19:20:48.278Z,3.00
2022-08-24T19:23:20.605Z,3.27
2022-08-24T19:25:47.463Z,3.87
2022-08-24T19:28:14.235Z,3.10
2022-08-24T19:30:42.130Z,3.43
2022-08-24T19:33:13.444Z,4.13
2022-08-24T19:35:41.168Z,4.00
2022-08-24T19:38:08.041Z,2.57
2022-08-24T19:40:34.740Z,3.20
2022-08-24T19:43:02.679Z,3.03
2022-08-24T19:45:49.108Z,4.23
2022-08-24T19:48:16.413Z,3.43
2022-08-24T19:50:43.174Z,4.00
2022-08-24T19:53:10.441Z,3.27
2022-08-24T19:55:37.354Z,4.00
2022-08-24T19:58:19.610Z,4.50
2022-08-24T20:00:57.562Z,4.37
2022-08-24T20:03:44.659Z,3.73
2022-08-24T20:06:17.752Z,5.33
2022-08-24T20:08:54.317Z,4.30
2022-08-24T20:11:38.334Z,4.23
2022-08-24T20:16:52.817Z,4.23
2022-08-24T20:19:19.783Z,4.17
2022-08-24T20:21:46.533Z,4.50
2022-08-24T20:24:13.251Z,5.23
2022-08-24T20:40:04.720Z,5.10
2022-08-24T20:43:03.146Z,3.80
2022-08-24T20:45:30.236Z,4.13
2022-08-24T20:47:59.757Z,4.17
2022-08-24T20:50:27.509Z,6.33
2022-08-24T20:52:55.862Z,4.80
2022-08-24T20:55:23.005Z,5.07
2022-08-24T20:57:51.721Z,4.57
2022-08-24T21:00:19.901Z,4.80
2022-08-24T21:02:47.037Z,4.87
2022-08-24T21:05:14.188Z,4.90
2022-08-24T21:07:47.905Z,4.57
2022-08-24T21:10:16.653Z,3.73
2022-08-24T21:12:44.094Z,4.40
2022-08-24T21:15:11.117Z,4.90
2022-08-24T21:17:37.894Z,4.53
2022-08-24T21:20:04.845Z,5.20
2022-08-24T21:22:32.568Z,4.97
2022-08-24T21:24:59.270Z,4.73
2022-08-24T21:27:26.423Z,4.20
2022-08-24T21:29:53.196Z,5.43
2022-08-24T21:32:38.777Z,5.23
2022-08-24T21:35:05.599Z,4.70
2022-08-24T21:37:32.473Z,5.17
2022-08-24T21:39:59.443Z,4.10
2022-08-24T21:42:26.333Z,3.57
2022-08-24T21:44:53.089Z,5.27
2022-08-24T21:47:19.691Z,4.27
2022-08-24T21:49:46.547Z,4.30
2022-08-24T21:52:13.333Z,4.17
2022-08-24T21:54:40.140Z,5.00
2022-08-24T21:57:07.030Z,4.17
2022-08-24T21:59:34.143Z,4.60
2022-08-24T22:02:01.658Z,4.40
2022-08-24T22:04:28.645Z,4.70
2022-08-24T22:06:55.521Z,3.97
2022-08-24T22:09:22.637Z,4.63
2022-08-24T22:11:49.627Z,5.20
2022-08-24T22:14:16.815Z,5.57
2022-08-24T22:16:44.767Z,5.40
2022-08-24T22:19:12.447Z,5.50
2022-08-24T22:21:40.635Z,6.03
2022-08-24T22:24:09.366Z,5.63
2022-08-24T22:26:36.355Z,4.80
2022-08-24T22:29:05.167Z,6.50
2022-08-24T22:31:36.427Z,5.53
2022-08-24T22:34:07.880Z,5.13
2022-08-24T22:36:34.757Z,5.83
2022-08-24T22:39:02.197Z,4.50
2022-08-24T22:41:29.563Z,5.97
2022-08-24T22:44:17.309Z,6.40
2022-08-24T22:46:44.144Z,6.90
2022-08-24T22:49:11.566Z,6.77
2022-08-24T22:51:38.875Z,6.67
2022-08-24T22:54:05.993Z,8.30
2022-08-24T22:56:35.262Z,7.40
2022-08-24T22:59:02.497Z,7.80
2022-08-24T23:01:34.384Z,8.03
2022-08-24T23:04:03.027Z,7.30
2022-08-24T23:06:30.204Z,7.33
2022-08-24T23:08:57.421Z,6.63
2022-08-24T23:11:27.058Z,6.47
2022-08-24T23:13:56.252Z,7.60
2022-08-24T23:16:24.616Z,6.90
2022-08-24T23:19:10.022Z,7.43
2022-08-24T23:21:36.877Z,6.67
2022-08-24T23:24:05.290Z,7.10
2022-08-24T23:26:32.588Z,9.30
2022-08-24T23:28:59.833Z,8.53
2022-08-24T23:31:27.129Z,7.70
2022-08-24T23:33:54.265Z,7.83
2022-08-24T23:36:22.235Z,8.20
2022-08-24T23:38:49.622Z,7.20
2022-08-24T23:41:18.561Z,7.43
2022-08-24T23:43:45.183Z,7.20
2022-08-24T23:46:12.622Z,7.43
2022-08-24T23:48:40.642Z,7.77
2022-08-24T23:51:12.559Z,7.40
2022-08-24T23:53:43.147Z,9.57
2022-08-24T23:56:11.794Z,8.20
2022-08-24T23:58:40.831Z,8.93
